Farm — LBHF — position and weather

sailwx.info

Track history (hours):
 
Tides and Currents Weather Stations Pressure Air Temp Water Temp Dewpoint Dewpoint Depression Visibility Wind Speed Wind Dir Waves Ship Positions

Farm

Last reported at 2015-Apr-23 01:15 UTC. Time now 2015-May-03 21:56 UTC.
Position N 70°50' E 023°54'.
Warning: this ship's position is 10 days out of date.

Length 46 m; draft 4 m.

Type: Other ship. MMSI: 257069200.

Date/timePositionNaut miles runAvg speedWind from/ knotsBaromVisibWave heightAir tempDewpointWater temp
2015-Apr-23 01:15N 70°50' E 023°54'5 7.2
2015-Apr-23 00:33N 70°46' E 023°43'7 6.6
2015-Apr-22 23:33N 70°41' E 023°30'6 6.2
2015-Apr-22 22:34N 70°35' E 023°36'6 6.0
2015-Apr-22 21:29N 70°29' E 023°43'  
2015-Apr-20 14:12N 70°26' E 023°38'5 5.4
2015-Apr-20 13:21N 70°30' E 023°39'5 6.0
2015-Apr-20 12:34N 70°35' E 023°36'5 5.3
2015-Apr-20 11:33N 70°40' E 023°40'0 0.0
2015-Apr-20 10:23N 70°40' E 023°40'0 0.0
2015-Apr-20 09:33N 70°40' E 023°40'8 7.7
2015-Apr-20 08:33N 70°32' E 023°39'6 0.4
2015-Apr-19 16:34N 70°26' E 023°39'2 1.9
2015-Apr-19 15:32N 70°28' E 023°40'0 0.5
2015-Apr-19 14:34N 70°28' E 023°39'0 0.1
2015-Apr-19 13:33N 70°28' E 023°39'0 0.2
2015-Apr-19 12:34N 70°28' E 023°38'0 0.1
2015-Apr-19 11:33N 70°28' E 023°38'4 4.0
2015-Apr-19 10:33N 70°32' E 023°38'8 8.0
2015-Apr-19 09:34N 70°40' E 023°40'5 4.7
2015-Apr-19 08:33N 70°45' E 023°38'2 0.1
2015-Apr-18 10:34N 70°43' E 023°33'4 4.3
2015-Apr-18 09:33N 70°40' E 023°41'3 2.9
2015-Apr-18 08:33N 70°39' E 023°33'6 5.8
2015-Apr-18 07:33N 70°39' E 023°15'1 1.3
2015-Apr-18 06:32N 70°39' E 023°11'0 0.1
2015-Apr-18 05:32N 70°39' E 023°11'0 0.1
2015-Apr-18 04:32N 70°39' E 023°12'0 0.0
2015-Apr-18 03:32N 70°39' E 023°12'0 0.0
2015-Apr-18 02:32N 70°39' E 023°12'0 0.0
2015-Apr-18 01:32N 70°39' E 023°12'0 0.0
2015-Apr-18 00:29N 70°39' E 023°12'0 0.0
2015-Apr-17 23:32N 70°39' E 023°12'0 0.0
2015-Apr-17 22:32N 70°39' E 023°12'0 0.0
2015-Apr-17 21:32N 70°39' E 023°12'5 4.9
2015-Apr-17 20:33N 70°42' E 023°24'  
Track history (hours):
 
Tides and Currents Weather Stations Pressure Air Temp Water Temp Dewpoint Dewpoint Depression Visibility Wind Speed Wind Dir Waves Ship Positions

Farm

Last reported at 2015-Apr-23 01:15 UTC. Time now 2015-May-03 21:56 UTC.
Position N 70°50' E 023°54'.
Warning: this ship's position is 10 days out of date.

Length 46 m; draft 4 m.

Type: Other ship. MMSI: 257069200.

Date/timePositionNaut miles runAvg speedWind from/ knotsBaromVisibWave heightAir tempDewpointWater temp
2015-Apr-23 01:15N 70°50' E 023°54'5 7.2
2015-Apr-23 00:33N 70°46' E 023°43'7 6.6
2015-Apr-22 23:33N 70°41' E 023°30'6 6.2
2015-Apr-22 22:34N 70°35' E 023°36'6 6.0
2015-Apr-22 21:29N 70°29' E 023°43'  
2015-Apr-20 14:12N 70°26' E 023°38'5 5.4
2015-Apr-20 13:21N 70°30' E 023°39'5 6.0
2015-Apr-20 12:34N 70°35' E 023°36'5 5.3
2015-Apr-20 11:33N 70°40' E 023°40'0 0.0
2015-Apr-20 10:23N 70°40' E 023°40'0 0.0
2015-Apr-20 09:33N 70°40' E 023°40'8 7.7
2015-Apr-20 08:33N 70°32' E 023°39'6 0.4
2015-Apr-19 16:34N 70°26' E 023°39'2 1.9
2015-Apr-19 15:32N 70°28' E 023°40'0 0.5
2015-Apr-19 14:34N 70°28' E 023°39'0 0.1
2015-Apr-19 13:33N 70°28' E 023°39'0 0.2
2015-Apr-19 12:34N 70°28' E 023°38'0 0.1
2015-Apr-19 11:33N 70°28' E 023°38'4 4.0
2015-Apr-19 10:33N 70°32' E 023°38'8 8.0
2015-Apr-19 09:34N 70°40' E 023°40'5 4.7
2015-Apr-19 08:33N 70°45' E 023°38'2 0.1
2015-Apr-18 10:34N 70°43' E 023°33'4 4.3
2015-Apr-18 09:33N 70°40' E 023°41'3 2.9
2015-Apr-18 08:33N 70°39' E 023°33'6 5.8
2015-Apr-18 07:33N 70°39' E 023°15'1 1.3
2015-Apr-18 06:32N 70°39' E 023°11'0 0.1
2015-Apr-18 05:32N 70°39' E 023°11'0 0.1
2015-Apr-18 04:32N 70°39' E 023°12'0 0.0
2015-Apr-18 03:32N 70°39' E 023°12'0 0.0
2015-Apr-18 02:32N 70°39' E 023°12'0 0.0
2015-Apr-18 01:32N 70°39' E 023°12'0 0.0
2015-Apr-18 00:29N 70°39' E 023°12'0 0.0
2015-Apr-17 23:32N 70°39' E 023°12'0 0.0
2015-Apr-17 22:32N 70°39' E 023°12'0 0.0
2015-Apr-17 21:32N 70°39' E 023°12'5 4.9
2015-Apr-17 20:33N 70°42' E 023°24'  

Dump ship's entire track history